createdAt,value
2023-04-22T00:00:17.362Z,80.4
2023-04-22T00:01:16.914Z,80.4
2023-04-22T00:02:17.104Z,80.5
2023-04-22T00:03:17.263Z,80.3
2023-04-22T00:04:17.813Z,80.4
2023-04-22T00:05:20.879Z,80.7
2023-04-22T00:06:16.573Z,80.5
2023-04-22T00:07:17.167Z,80.6
2023-04-22T00:08:16.724Z,80.7
2023-04-22T00:09:17.279Z,80.6
2023-04-22T00:10:16.849Z,80.8
2023-04-22T00:11:17.401Z,80.7
2023-04-22T00:12:17.132Z,80.7
2023-04-22T00:13:16.724Z,80.6
2023-04-22T00:14:17.281Z,80.7
2023-04-22T00:15:16.813Z,80.7
2023-04-22T00:16:17.506Z,80.5
2023-04-22T00:17:17.149Z,80.6
2023-04-22T00:18:16.710Z,80.6
2023-04-22T00:19:17.296Z,80.6
2023-04-22T00:20:16.878Z,80.6
2023-04-22T00:21:17.446Z,80.6
2023-04-22T00:22:17.519Z,80.6
2023-04-22T00:23:17.076Z,80.8
2023-04-22T00:24:16.628Z,80.8
2023-04-22T00:25:17.170Z,80.7
2023-04-22T00:26:16.699Z,80.7
2023-04-22T00:27:17.271Z,80.6
2023-04-22T00:28:16.849Z,80.5
2023-04-22T00:29:17.420Z,80.5
2023-04-22T00:30:16.956Z,80.5
2023-04-22T00:31:17.610Z,80.6
2023-04-22T00:32:17.503Z,80.4
2023-04-22T00:33:17.037Z,80.4
2023-04-22T00:34:16.610Z,80.5
2023-04-22T00:35:17.179Z,80.4
2023-04-22T00:36:16.721Z,80.4
2023-04-22T00:37:17.285Z,80.4
2023-04-22T00:38:16.838Z,80.4
2023-04-22T00:39:17.425Z,80.5
2023-04-22T00:40:16.994Z,80.5
2023-04-22T00:41:16.539Z,80.4
2023-04-22T00:42:16.565Z,80.5
2023-04-22T00:43:17.124Z,80.6
2023-04-22T00:44:16.677Z,80.2
2023-04-22T00:45:17.207Z,80.1
2023-04-22T00:46:16.908Z,80.2
2023-04-22T00:47:16.735Z,80.2
2023-04-22T00:48:17.479Z,80.2
2023-04-22T00:49:17.049Z,80.2
2023-04-22T00:50:16.612Z,80.1
2023-04-22T00:51:17.172Z,80.3
2023-04-22T00:52:17.176Z,80.2
2023-04-22T00:53:16.786Z,80.2
2023-04-22T00:54:17.389Z,80.4
2023-04-22T00:55:16.943Z,80.3
2023-04-22T00:56:17.525Z,80.2
2023-04-22T00:57:17.108Z,80.2
2023-04-22T00:58:16.693Z,80.2
2023-04-22T00:59:17.223Z,80.3
2023-04-22T01:00:16.768Z,80.3
2023-04-22T01:01:17.377Z,80.3
2023-04-22T01:02:16.740Z,80.3
2023-04-22T01:03:17.852Z,80.3
2023-04-22T01:04:17.834Z,80.5
2023-04-22T01:05:17.462Z,80.5
2023-04-22T01:06:17.026Z,80.5
2023-04-22T01:07:16.559Z,80.6
2023-04-22T01:08:17.113Z,80.6
2023-04-22T01:09:16.665Z,80.5
2023-04-22T01:10:17.239Z,80.8
2023-04-22T01:11:16.823Z,80.7
2023-04-22T01:12:17.498Z,80.8
2023-04-22T01:13:17.075Z,80.8
2023-04-22T01:14:16.649Z,80.8
2023-04-22T01:15:17.195Z,80.8
2023-04-22T01:16:16.834Z,80.7
2023-04-22T01:17:17.427Z,80.7
2023-04-22T01:18:16.987Z,80.7
2023-04-22T01:19:16.551Z,80.6
2023-04-22T01:20:17.121Z,80.7
2023-04-22T01:21:16.646Z,80.7
2023-04-22T01:22:17.445Z,80.7
2023-04-22T01:23:17.063Z,80.9
2023-04-22T01:24:16.640Z,80.9
2023-04-22T01:25:17.226Z,80.7
2023-04-22T01:26:16.768Z,80.8
2023-04-22T01:27:17.339Z,80.7
2023-04-22T01:28:16.914Z,80.8
2023-04-22T01:29:17.493Z,80.8
2023-04-22T01:30:17.046Z,80.8
2023-04-22T01:31:16.625Z,80.8
2023-04-22T01:32:16.861Z,80.9
2023-04-22T01:33:17.706Z,81.0
2023-04-22T01:34:17.273Z,81.0
2023-04-22T01:35:16.846Z,81.0
2023-04-22T01:36:17.422Z,81.0
2023-04-22T01:37:17.007Z,81.3
2023-04-22T01:38:16.600Z,81.1
2023-04-22T01:39:17.165Z,81.2
2023-04-22T01:40:16.744Z,81.0
2023-04-22T01:41:17.303Z,81.0
2023-04-22T01:42:16.952Z,81.1
2023-04-22T01:43:17.484Z,81.2
2023-04-22T01:44:17.056Z,81.3
2023-04-22T01:45:16.645Z,81.2
2023-04-22T01:46:17.288Z,81.2
2023-04-22T01:47:16.869Z,81.3
2023-04-22T01:48:17.556Z,81.2
2023-04-22T01:49:17.163Z,81.2
2023-04-22T01:50:16.709Z,81.2
2023-04-22T01:51:17.264Z,81.4
2023-04-22T01:52:17.326Z,81.3
2023-04-22T01:53:16.897Z,81.3
2023-04-22T01:54:17.462Z,81.5
2023-04-22T01:55:16.994Z,81.6
2023-04-22T01:56:16.604Z,81.4
2023-04-22T01:57:17.145Z,81.3
2023-04-22T01:58:16.684Z,81.2
2023-04-22T01:59:17.247Z,81.4
2023-04-22T02:00:16.839Z,81.3
2023-04-22T02:01:17.435Z,81.3
2023-04-22T02:02:17.212Z,81.3
2023-04-22T02:03:16.929Z,81.2
2023-04-22T02:04:16.524Z,81.2
2023-04-22T02:05:17.091Z,81.2
2023-04-22T02:06:16.655Z,81.1
2023-04-22T02:07:17.189Z,81.1
2023-04-22T02:08:16.753Z,81.1
2023-04-22T02:09:17.323Z,81.1
2023-04-22T02:10:16.909Z,81.1
2023-04-22T02:11:17.434Z,81.0
2023-04-22T02:12:16.819Z,81.1
2023-04-22T02:13:17.407Z,81.2
2023-04-22T02:14:16.964Z,81.4
2023-04-22T02:15:17.535Z,81.6
2023-04-22T02:16:17.235Z,81.3
2023-04-22T02:17:16.848Z,81.4
2023-04-22T02:18:17.380Z,81.4
2023-04-22T02:19:16.927Z,81.1
2023-04-22T02:20:17.609Z,81.1
2023-04-22T02:21:17.193Z,81.2
2023-04-22T02:22:17.130Z,81.0
2023-04-22T02:23:16.691Z,81.5
2023-04-22T02:24:17.237Z,81.5
2023-04-22T02:25:16.789Z,81.5
2023-04-22T02:26:17.400Z,81.6
2023-04-22T02:27:16.967Z,81.8
2023-04-22T02:28:17.576Z,81.7
2023-04-22T02:29:17.156Z,81.5
2023-04-22T02:30:16.776Z,81.7
2023-04-22T02:31:17.536Z,81.7
2023-04-22T02:32:16.532Z,81.8
2023-04-22T02:33:17.086Z,81.9
2023-04-22T02:34:16.703Z,82.0
2023-04-22T02:35:17.248Z,82.2
2023-04-22T02:36:16.784Z,82.3
2023-04-22T02:37:17.327Z,82.3
2023-04-22T02:38:16.886Z,82.5
2023-04-22T02:39:17.442Z,82.6
2023-04-22T02:40:17.055Z,82.7
2023-04-22T02:41:16.595Z,82.8
2023-04-22T02:42:16.854Z,83.0
2023-04-22T02:43:17.454Z,83.0
2023-04-22T02:44:17.017Z,83.1
2023-04-22T02:45:16.596Z,83.3
2023-04-22T02:46:17.249Z,83.4
2023-04-22T02:47:16.844Z,84.0
2023-04-22T02:48:17.373Z,84.7
2023-04-22T02:49:16.947Z,84.7
2023-04-22T02:50:17.534Z,84.8
2023-04-22T02:51:17.095Z,84.7
2023-04-22T02:52:17.196Z,85.0
2023-04-22T02:53:16.760Z,85.1
2023-04-22T02:54:17.338Z,85.1
2023-04-22T02:55:16.941Z,85.2
2023-04-22T02:56:16.578Z,85.1
2023-04-22T02:57:17.125Z,85.0
2023-04-22T02:58:16.692Z,84.8
2023-04-22T02:59:17.236Z,84.7
2023-04-22T03:00:16.811Z,84.7
2023-04-22T03:01:17.431Z,84.7
2023-04-22T03:02:17.560Z,84.7
2023-04-22T03:03:17.530Z,84.6
2023-04-22T03:04:17.439Z,84.5
2023-04-22T03:05:17.081Z,84.8
2023-04-22T03:06:16.684Z,84.8
2023-04-22T03:07:17.289Z,84.8
2023-04-22T03:08:16.826Z,85.6
2023-04-22T03:09:17.411Z,86.2
2023-04-22T03:10:17.068Z,86.4
2023-04-22T03:11:16.611Z,86.5
2023-04-22T03:12:16.872Z,86.3
2023-04-22T03:13:17.430Z,85.9
2023-04-22T03:14:16.997Z,85.8
2023-04-22T03:15:21.388Z,85.7
2023-04-22T03:16:17.321Z,85.6
2023-04-22T03:17:16.873Z,85.6
2023-04-22T03:18:17.413Z,85.8
2023-04-22T03:19:16.986Z,86.0
2023-04-22T03:20:16.551Z,86.0
2023-04-22T03:21:17.154Z,86.0
2023-04-22T03:22:16.982Z,86.0
2023-04-22T03:23:16.529Z,86.1
2023-04-22T03:24:17.095Z,86.1
2023-04-22T03:25:16.661Z,86.2
2023-04-22T03:26:17.239Z,86.4
2023-04-22T03:27:16.806Z,86.3
2023-04-22T03:28:17.355Z,86.3
2023-04-22T03:29:16.911Z,86.6
2023-04-22T03:30:17.487Z,86.6
2023-04-22T03:31:17.076Z,86.4
2023-04-22T03:32:17.683Z,86.5
2023-04-22T03:33:17.426Z,86.5
2023-04-22T03:34:17.001Z,86.5
2023-04-22T03:35:16.565Z,86.5
2023-04-22T03:36:17.109Z,86.5
2023-04-22T03:37:16.685Z,86.5
2023-04-22T03:38:17.303Z,86.4
2023-04-22T03:39:16.871Z,86.4
2023-04-22T03:40:17.419Z,86.4
2023-04-22T03:41:17.002Z,86.4
2023-04-22T03:42:17.039Z,86.2
2023-04-22T03:43:16.634Z,86.2
2023-04-22T03:44:17.170Z,86.2
2023-04-22T03:45:16.736Z,86.2
2023-04-22T03:46:17.440Z,86.1
2023-04-22T03:47:17.475Z,86.0
2023-04-22T03:48:17.432Z,86.2
2023-04-22T03:49:17.022Z,86.1
2023-04-22T03:50:16.585Z,86.2
2023-04-22T03:51:17.140Z,86.2
2023-04-22T03:52:17.316Z,86.2
2023-04-22T03:53:16.862Z,86.1
2023-04-22T03:54:17.410Z,86.1
2023-04-22T03:55:16.969Z,86.1
2023-04-22T03:56:16.539Z,86.0
2023-04-22T03:57:17.070Z,86.0
2023-04-22T03:58:16.610Z,85.9
2023-04-22T03:59:17.172Z,86.0
2023-04-22T04:00:16.720Z,85.9
2023-04-22T04:01:17.271Z,86.0
2023-04-22T04:02:17.249Z,85.9
2023-04-22T04:03:17.338Z,85.8
2023-04-22T04:04:17.611Z,85.9
2023-04-22T04:05:17.597Z,85.9
2023-04-22T04:06:17.309Z,85.8
2023-04-22T04:07:16.901Z,85.7
2023-04-22T04:08:17.467Z,85.6
2023-04-22T04:09:17.015Z,85.4
2023-04-22T04:10:16.590Z,85.4
2023-04-22T04:11:17.147Z,85.3
2023-04-22T04:12:17.294Z,85.3
2023-04-22T04:13:16.834Z,85.3
2023-04-22T04:14:17.390Z,85.2
2023-04-22T04:15:16.962Z,85.3
2023-04-22T04:16:16.690Z,85.2
2023-04-22T04:17:17.426Z,85.2
2023-04-22T04:18:17.111Z,85.1
2023-04-22T04:19:16.671Z,85.1
2023-04-22T04:20:17.222Z,85.1
2023-04-22T04:21:16.772Z,85.0
2023-04-22T04:22:16.572Z,85.0
2023-04-22T04:23:17.134Z,84.9
2023-04-22T04:24:16.736Z,84.9
2023-04-22T04:25:17.315Z,84.8
2023-04-22T04:26:16.902Z,84.7
2023-04-22T04:27:17.535Z,84.7
2023-04-22T04:28:17.104Z,84.5
2023-04-22T04:29:16.687Z,84.4
2023-04-22T04:30:17.238Z,84.2
2023-04-22T04:31:16.907Z,84.2
2023-04-22T04:32:16.991Z,84.0
2023-04-22T04:33:16.545Z,83.9
2023-04-22T04:34:17.132Z,83.7
2023-04-22T04:35:16.682Z,83.7
2023-04-22T04:36:17.211Z,83.5
2023-04-22T04:37:16.740Z,83.4
2023-04-22T04:38:17.324Z,83.3
2023-04-22T04:39:16.875Z,83.1
2023-04-22T04:40:17.420Z,83.1
2023-04-22T04:41:16.998Z,82.9
2023-04-22T04:42:17.480Z,82.8
2023-04-22T04:43:17.064Z,82.8
2023-04-22T04:44:16.605Z,82.7
2023-04-22T04:45:17.175Z,82.5
2023-04-22T04:46:16.839Z,82.4
2023-04-22T04:47:17.414Z,82.3
2023-04-22T04:48:17.043Z,82.1
2023-04-22T04:49:16.595Z,82.0
2023-04-22T04:50:17.142Z,81.7
2023-04-22T04:51:20.343Z,81.5
2023-04-22T04:52:17.413Z,81.3
2023-04-22T04:53:16.959Z,81.0
2023-04-22T04:54:17.496Z,80.9
2023-04-22T04:55:17.082Z,81.0
2023-04-22T04:56:16.677Z,81.0
2023-04-22T04:57:17.239Z,80.6
2023-04-22T04:58:16.809Z,80.0
2023-04-22T04:59:17.373Z,79.8
2023-04-22T05:00:17.018Z,79.7
2023-04-22T05:01:16.660Z,79.2
2023-04-22T05:02:16.716Z,79.6
2023-04-22T05:03:17.787Z,79.5
2023-04-22T05:04:17.728Z,79.0
2023-04-22T05:05:17.389Z,78.0
2023-04-22T05:06:16.982Z,78.5
2023-04-22T05:07:16.550Z,78.2
2023-04-22T05:08:17.121Z,78.4
2023-04-22T05:09:16.669Z,78.2
2023-04-22T05:10:17.231Z,77.3
2023-04-22T05:11:16.762Z,77.7
2023-04-22T05:12:17.468Z,78.0
2023-04-22T05:13:17.037Z,78.1
2023-04-22T05:14:16.579Z,78.2
2023-04-22T05:15:17.139Z,78.3
2023-04-22T05:16:16.812Z,78.7
2023-04-22T05:17:17.382Z,78.5
2023-04-22T05:18:16.916Z,78.2
2023-04-22T05:19:17.496Z,77.8
2023-04-22T05:20:17.081Z,77.6
2023-04-22T05:21:16.661Z,77.5
2023-04-22T05:22:17.136Z,77.6
2023-04-22T05:23:16.692Z,77.3
2023-04-22T05:24:17.252Z,77.3
2023-04-22T05:25:16.787Z,77.3
2023-04-22T05:26:17.341Z,77.2
2023-04-22T05:27:16.905Z,76.8
2023-04-22T05:28:17.499Z,76.5
2023-04-22T05:29:17.030Z,76.5
2023-04-22T05:30:16.616Z,76.2
2023-04-22T05:31:17.203Z,76.2
2023-04-22T05:32:17.577Z,76.3
2023-04-22T05:33:17.292Z,76.6
2023-04-22T05:34:16.915Z,75.9
2023-04-22T05:35:17.479Z,75.3
2023-04-22T05:36:17.034Z,75.1
2023-04-22T05:37:16.596Z,74.5
2023-04-22T05:38:17.139Z,74.7
2023-04-22T05:39:16.662Z,74.3
2023-04-22T05:40:17.275Z,74.6
2023-04-22T05:41:16.813Z,74.9
2023-04-22T05:42:17.534Z,74.8
2023-04-22T05:43:17.094Z,74.5
2023-04-22T05:44:16.713Z,73.8
2023-04-22T05:45:17.265Z,74.0
2023-04-22T05:46:16.894Z,72.5
2023-04-22T05:47:17.511Z,73.0
2023-04-22T05:48:17.064Z,73.3
2023-04-22T05:49:16.649Z,73.5
2023-04-22T05:50:17.224Z,72.5
2023-04-22T05:51:16.761Z,72.4
2023-04-22T05:52:17.448Z,72.9
2023-04-22T05:53:17.026Z,73.1
2023-04-22T05:54:16.575Z,72.6
2023-04-22T05:55:17.163Z,72.2
2023-04-22T05:56:16.727Z,71.7
2023-04-22T05:57:17.276Z,71.7
2023-04-22T05:58:16.825Z,71.4
2023-04-22T05:59:21.642Z,71.0
2023-04-22T06:00:17.341Z,70.6
2023-04-22T06:01:16.892Z,70.4
2023-04-22T06:02:16.943Z,68.7
2023-04-22T06:03:17.035Z,67.6
2023-04-22T06:04:17.417Z,68.5
2023-04-22T06:05:17.293Z,68.1
2023-04-22T06:06:16.922Z,67.7
2023-04-22T06:07:17.487Z,68.1
2023-04-22T06:08:17.034Z,67.7
2023-04-22T06:09:16.634Z,66.3
2023-04-22T06:10:17.210Z,67.5
2023-04-22T06:11:16.779Z,67.4
2023-04-22T06:12:17.402Z,64.8
2023-04-22T06:13:16.980Z,65.9
2023-04-22T06:14:16.564Z,65.5
2023-04-22T06:15:17.132Z,64.9
2023-04-22T06:16:16.728Z,64.7
2023-04-22T06:17:17.459Z,64.6
2023-04-22T06:18:17.039Z,63.8
2023-04-22T06:19:16.595Z,64.3
2023-04-22T06:20:17.202Z,64.7
2023-04-22T06:21:16.753Z,63.3
2023-04-22T06:22:16.689Z,63.6
2023-04-22T06:23:17.252Z,63.5
2023-04-22T06:24:16.807Z,62.8
2023-04-22T06:25:17.386Z,64.1
2023-04-22T06:26:16.911Z,62.6
2023-04-22T06:27:17.500Z,62.6
2023-04-22T06:28:17.055Z,62.2
2023-04-22T06:29:16.603Z,61.4
2023-04-22T06:30:17.147Z,61.3
2023-04-22T06:31:18.873Z,60.5
2023-04-22T06:32:16.698Z,62.4
2023-04-22T06:33:17.301Z,62.4
2023-04-22T06:34:16.855Z,61.2
2023-04-22T06:35:17.437Z,60.7
2023-04-22T06:36:17.011Z,60.6
2023-04-22T06:37:16.568Z,60.5
2023-04-22T06:38:17.138Z,60.0
2023-04-22T06:39:16.736Z,59.0
2023-04-22T06:40:17.327Z,59.5
2023-04-22T06:41:16.861Z,59.5
2023-04-22T06:42:17.520Z,59.3
2023-04-22T06:43:17.081Z,58.6
2023-04-22T06:44:16.701Z,59.4
2023-04-22T06:45:17.241Z,58.5
2023-04-22T06:46:16.864Z,59.4
2023-04-22T06:47:17.443Z,59.1
2023-04-22T06:48:17.037Z,58.8
2023-04-22T06:49:16.596Z,58.7
2023-04-22T06:50:17.166Z,58.4
2023-04-22T06:51:16.709Z,59.7
2023-04-22T06:52:16.613Z,60.0
2023-04-22T06:53:17.177Z,59.9
2023-04-22T06:54:16.755Z,57.8
2023-04-22T06:55:17.321Z,56.6
2023-04-22T06:56:16.854Z,56.8
2023-04-22T06:57:17.408Z,56.4
2023-04-22T06:58:16.947Z,55.9
2023-04-22T06:59:17.522Z,55.7
2023-04-22T07:00:17.101Z,56.3
2023-04-22T07:01:16.766Z,55.7
2023-04-22T07:02:17.548Z,56.2
2023-04-22T07:03:17.472Z,55.4
2023-04-22T07:04:17.167Z,55.5
2023-04-22T07:05:16.772Z,55.8
2023-04-22T07:06:17.336Z,54.5
2023-04-22T07:07:16.892Z,55.8
2023-04-22T07:08:17.458Z,54.7
2023-04-22T07:09:17.036Z,54.1
2023-04-22T07:10:16.624Z,52.8
2023-04-22T07:11:17.203Z,53.1
2023-04-22T07:12:16.724Z,52.8
2023-04-22T07:13:17.306Z,53.2
2023-04-22T07:14:16.826Z,52.9
2023-04-22T07:15:17.389Z,53.6
2023-04-22T07:16:16.972Z,54.2
2023-04-22T07:17:16.519Z,54.1
2023-04-22T07:18:17.051Z,53.5
2023-04-22T07:19:16.594Z,52.2
2023-04-22T07:20:17.170Z,53.9
2023-04-22T07:21:16.794Z,54.3
2023-04-22T07:22:17.083Z,53.9
2023-04-22T07:23:16.646Z,53.7
2023-04-22T07:24:17.196Z,53.2
2023-04-22T07:25:16.747Z,54.1
2023-04-22T07:26:17.282Z,53.1
2023-04-22T07:27:16.840Z,53.4
2023-04-22T07:28:17.391Z,53.4
2023-04-22T07:29:16.910Z,53.7
2023-04-22T07:30:17.480Z,52.9
2023-04-22T07:31:17.106Z,52.4
2023-04-22T07:32:17.132Z,53.4
2023-04-22T07:33:16.710Z,52.8
2023-04-22T07:34:17.253Z,52.9
2023-04-22T07:35:16.810Z,53.5
2023-04-22T07:36:17.390Z,52.7
2023-04-22T07:37:16.930Z,53.4
2023-04-22T07:38:17.512Z,53.4
2023-04-22T07:39:17.091Z,52.2
2023-04-22T07:40:16.626Z,51.5
2023-04-22T07:41:17.192Z,51.8
2023-04-22T07:42:16.963Z,52.1
2023-04-22T07:43:16.518Z,52.0
2023-04-22T07:44:17.056Z,52.6
2023-04-22T07:45:16.629Z,52.8
2023-04-22T07:46:17.369Z,52.7
2023-04-22T07:47:16.949Z,52.8
2023-04-22T07:48:17.560Z,52.5
2023-04-22T07:49:17.150Z,52.6
2023-04-22T07:50:16.687Z,53.2
2023-04-22T07:51:17.270Z,52.8
2023-04-22T07:52:17.020Z,51.9
2023-04-22T07:53:16.585Z,51.2
2023-04-22T07:54:17.125Z,51.2
2023-04-22T07:55:16.681Z,51.5
2023-04-22T07:56:17.244Z,51.1
2023-04-22T07:57:16.824Z,52.1
2023-04-22T07:58:17.428Z,51.5
2023-04-22T07:59:17.005Z,51.7
2023-04-22T08:00:16.568Z,52.2
2023-04-22T08:01:20.310Z,51.9
2023-04-22T08:02:16.723Z,51.3
2023-04-22T08:03:17.807Z,50.1
2023-04-22T08:04:18.054Z,48.7
2023-04-22T08:05:16.885Z,48.8
2023-04-22T08:06:17.475Z,48.4
2023-04-22T08:07:32.807Z,48.2
2023-04-22T08:08:16.707Z,48.6
2023-04-22T08:09:17.278Z,49.3
2023-04-22T08:10:16.858Z,48.5
2023-04-22T08:11:17.433Z,47.8
2023-04-22T08:12:17.254Z,48.8
2023-04-22T08:13:18.552Z,48.5
2023-04-22T08:14:17.119Z,50.2
2023-04-22T08:15:16.665Z,49.5
2023-04-22T08:16:17.346Z,48.4
2023-04-22T08:17:16.924Z,46.4
2023-04-22T08:18:17.479Z,47.1
2023-04-22T08:19:17.018Z,47.3
2023-04-22T08:20:16.580Z,48.1
2023-04-22T08:21:17.137Z,48.2
2023-04-22T08:22:17.287Z,47.9
2023-04-22T08:23:16.860Z,47.0
2023-04-22T08:24:17.446Z,46.4
2023-04-22T08:25:17.029Z,49.8
2023-04-22T08:26:16.588Z,48.6
2023-04-22T08:27:17.117Z,48.8
2023-04-22T08:28:16.682Z,47.0
2023-04-22T08:29:17.235Z,46.6
2023-04-22T08:30:16.815Z,48.3
2023-04-22T08:31:17.443Z,48.1
2023-04-22T08:32:17.063Z,48.5
2023-04-22T08:33:16.604Z,47.0
2023-04-22T08:34:17.154Z,47.4
2023-04-22T08:35:16.706Z,47.6
2023-04-22T08:36:17.277Z,46.3
2023-04-22T08:37:16.830Z,46.2
2023-04-22T08:38:17.397Z,46.5
2023-04-22T08:39:16.958Z,46.0
2023-04-22T08:40:17.526Z,46.3
2023-04-22T08:41:17.088Z,48.7
2023-04-22T08:42:17.473Z,48.2
2023-04-22T08:43:16.992Z,47.3
2023-04-22T08:44:16.572Z,47.6
2023-04-22T08:45:17.159Z,46.6
2023-04-22T08:46:16.779Z,46.0
2023-04-22T08:47:17.383Z,45.6
2023-04-22T08:48:16.952Z,45.9
2023-04-22T08:49:17.508Z,44.7
2023-04-22T08:50:17.074Z,44.2
2023-04-22T08:51:16.645Z,45.7
2023-04-22T08:52:17.430Z,45.3
2023-04-22T08:53:16.990Z,45.2
2023-04-22T08:54:16.536Z,45.1
2023-04-22T08:55:17.095Z,45.5
2023-04-22T08:56:16.684Z,44.3
2023-04-22T08:57:17.262Z,45.0
2023-04-22T08:58:16.828Z,45.7
2023-04-22T08:59:17.401Z,46.2
2023-04-22T09:00:17.032Z,46.4
2023-04-22T09:01:16.648Z,45.2
2023-04-22T09:02:16.814Z,46.4
2023-04-22T09:03:17.463Z,47.6
2023-04-22T09:04:17.234Z,46.1
2023-04-22T09:05:16.866Z,45.7
2023-04-22T09:06:17.402Z,46.5
2023-04-22T09:07:16.954Z,44.8
2023-04-22T09:08:17.494Z,43.9
2023-04-22T09:09:17.067Z,43.3
2023-04-22T09:10:16.606Z,43.2
2023-04-22T09:11:17.183Z,43.3
2023-04-22T09:12:16.914Z,44.3
2023-04-22T09:13:17.467Z,44.6
2023-04-22T09:14:17.055Z,43.2
2023-04-22T09:15:16.654Z,44.7
2023-04-22T09:16:17.296Z,44.9
2023-04-22T09:17:16.889Z,44.2
2023-04-22T09:18:17.471Z,44.5
2023-04-22T09:19:17.053Z,44.4
2023-04-22T09:20:16.630Z,45.6
2023-04-22T09:21:17.163Z,45.0
2023-04-22T09:22:17.160Z,44.4
2023-04-22T09:23:16.725Z,43.3
2023-04-22T09:24:17.280Z,42.4
2023-04-22T09:25:16.814Z,43.0
2023-04-22T09:26:17.366Z,41.0
2023-04-22T09:27:16.915Z,42.2
2023-04-22T09:28:17.465Z,42.7
2023-04-22T09:29:17.028Z,41.9
2023-04-22T09:30:16.601Z,42.0
2023-04-22T09:31:17.238Z,42.9
2023-04-22T09:32:17.261Z,43.7
2023-04-22T09:33:16.837Z,43.9
2023-04-22T09:34:17.393Z,44.8
2023-04-22T09:35:16.945Z,45.2
2023-04-22T09:36:17.501Z,45.4
2023-04-22T09:37:17.039Z,45.5
2023-04-22T09:38:17.508Z,45.1
2023-04-22T09:39:17.123Z,44.4
2023-04-22T09:40:16.708Z,44.9
2023-04-22T09:41:17.272Z,45.6
2023-04-22T09:42:16.575Z,45.6
2023-04-22T09:43:17.132Z,46.1
2023-04-22T09:44:16.724Z,46.3
2023-04-22T09:45:17.273Z,46.0
2023-04-22T09:46:17.071Z,46.0
2023-04-22T09:47:16.673Z,46.3
2023-04-22T09:48:17.217Z,47.0
2023-04-22T09:49:16.804Z,46.7
2023-04-22T09:50:17.458Z,45.9
2023-04-22T09:51:17.021Z,46.7
2023-04-22T09:52:17.527Z,46.3
2023-04-22T09:53:17.163Z,45.0
2023-04-22T09:54:16.737Z,45.3
2023-04-22T09:55:17.294Z,44.9
2023-04-22T09:56:16.875Z,43.9
2023-04-22T09:57:17.461Z,46.1
2023-04-22T09:58:17.028Z,46.0
2023-04-22T09:59:16.601Z,45.6
2023-04-22T10:00:17.272Z,46.9
2023-04-22T10:01:16.949Z,47.1
2023-04-22T10:02:16.577Z,46.5
2023-04-22T10:03:17.491Z,44.9
2023-04-22T10:04:17.173Z,45.5
2023-04-22T10:05:16.758Z,44.9
2023-04-22T10:06:17.278Z,43.7
2023-04-22T10:07:16.827Z,43.3
2023-04-22T10:08:17.516Z,42.7
2023-04-22T10:09:17.133Z,43.5
2023-04-22T10:10:16.699Z,44.5
2023-04-22T10:11:17.253Z,45.2
2023-04-22T10:12:33.166Z,47.2
2023-04-22T10:13:16.800Z,47.7
2023-04-22T10:14:17.399Z,48.1
2023-04-22T10:15:16.957Z,46.8
2023-04-22T10:16:16.596Z,47.8
2023-04-22T10:17:17.145Z,47.8
2023-04-22T10:18:16.691Z,45.5
2023-04-22T10:19:17.256Z,45.2
2023-04-22T10:20:16.805Z,45.2
2023-04-22T10:21:17.358Z,45.7
2023-04-22T10:22:17.055Z,45.1
2023-04-22T10:23:16.653Z,44.7
2023-04-22T10:24:17.249Z,44.0
2023-04-22T10:25:16.797Z,45.2
2023-04-22T10:26:17.366Z,44.8
2023-04-22T10:27:16.934Z,45.9
2023-04-22T10:28:17.492Z,44.9
2023-04-22T10:29:17.101Z,44.8
2023-04-22T10:30:16.755Z,45.8
2023-04-22T10:31:17.392Z,46.0
2023-04-22T10:32:17.475Z,45.7
2023-04-22T10:33:17.020Z,45.9
2023-04-22T10:34:16.594Z,46.0
2023-04-22T10:35:17.154Z,46.6
2023-04-22T10:36:16.788Z,46.4
2023-04-22T10:37:17.358Z,44.1
2023-04-22T10:38:16.934Z,44.3
2023-04-22T10:39:17.509Z,43.2
2023-04-22T10:40:17.250Z,43.7
2023-04-22T10:41:16.864Z,42.9
2023-04-22T10:42:17.011Z,41.4
2023-04-22T10:43:16.555Z,42.3
2023-04-22T10:44:17.099Z,43.2
2023-04-22T10:45:16.861Z,43.7
2023-04-22T10:46:17.511Z,44.6
2023-04-22T10:47:17.415Z,45.8
2023-04-22T10:48:17.040Z,44.0
2023-04-22T10:49:16.571Z,43.9
2023-04-22T10:50:17.314Z,44.5
2023-04-22T10:51:16.953Z,44.7
2023-04-22T10:52:16.542Z,46.4
2023-04-22T10:53:17.110Z,47.1
2023-04-22T10:54:16.655Z,46.2
2023-04-22T10:55:17.236Z,45.8
2023-04-22T10:56:16.772Z,44.7
2023-04-22T10:57:17.307Z,44.6
2023-04-22T10:58:16.854Z,44.7
2023-04-22T10:59:17.454Z,44.3
2023-04-22T11:00:17.387Z,44.0
2023-04-22T11:01:17.011Z,43.5
2023-04-22T11:02:17.523Z,42.6
2023-04-22T11:03:17.447Z,43.2
2023-04-22T11:04:17.344Z,44.3
2023-04-22T11:05:16.950Z,44.0
2023-04-22T11:06:17.501Z,44.2
2023-04-22T11:07:17.053Z,43.2
2023-04-22T11:08:16.621Z,44.2
2023-04-22T11:09:17.173Z,45.1
2023-04-22T11:10:16.753Z,44.1
2023-04-22T11:11:17.416Z,45.2
2023-04-22T11:12:17.207Z,45.0
2023-04-22T11:13:16.776Z,43.5
2023-04-22T11:14:17.351Z,42.6
2023-04-22T11:15:16.920Z,42.3
2023-04-22T11:16:18.444Z,43.0
2023-04-22T11:17:16.853Z,42.4
2023-04-22T11:18:17.398Z,41.3
2023-04-22T11:19:16.953Z,41.5
2023-04-22T11:20:17.623Z,40.2
2023-04-22T11:21:17.188Z,40.4
2023-04-22T11:22:16.793Z,40.4
2023-04-22T11:23:17.355Z,41.5
2023-04-22T11:24:16.908Z,42.9
2023-04-22T11:25:17.480Z,42.6
2023-04-22T11:26:17.039Z,42.4
2023-04-22T11:27:16.567Z,41.9
2023-04-22T11:28:17.161Z,41.2
2023-04-22T11:29:16.725Z,40.8
2023-04-22T11:30:17.298Z,40.8
2023-04-22T11:31:16.883Z,40.7
2023-04-22T11:32:17.070Z,41.8
2023-04-22T11:33:16.673Z,40.1
2023-04-22T11:34:17.239Z,40.7
2023-04-22T11:35:16.776Z,40.4
2023-04-22T11:36:17.365Z,41.0
2023-04-22T11:37:16.928Z,41.2
2023-04-22T11:38:17.476Z,41.6
2023-04-22T11:39:17.078Z,42.6
2023-04-22T11:40:31.087Z,43.6
2023-04-22T11:41:17.434Z,43.2
2023-04-22T11:42:17.202Z,43.4
2023-04-22T11:43:16.792Z,43.2
2023-04-22T11:44:17.392Z,42.4
2023-04-22T11:45:16.981Z,42.3
2023-04-22T11:46:16.657Z,42.2
2023-04-22T11:47:17.236Z,41.9
2023-04-22T11:48:16.888Z,43.5
2023-04-22T11:49:17.444Z,42.8
2023-04-22T11:50:16.993Z,42.7
2023-04-22T11:51:16.576Z,43.2
2023-04-22T11:52:17.196Z,43.1
2023-04-22T11:53:16.761Z,42.9
2023-04-22T11:54:17.335Z,42.6
2023-04-22T11:55:16.900Z,43.0
2023-04-22T11:56:17.446Z,43.7
2023-04-22T11:57:17.010Z,43.9
2023-04-22T11:58:16.600Z,44.5
2023-04-22T11:59:17.174Z,44.7
2023-04-22T12:00:16.733Z,44.6
2023-04-22T12:01:17.277Z,44.9
2023-04-22T12:02:17.414Z,44.9
2023-04-22T12:03:17.427Z,45.2
2023-04-22T12:04:17.236Z,44.8
2023-04-22T12:05:16.915Z,44.7
2023-04-22T12:06:17.539Z,45.1
2023-04-22T12:07:17.101Z,45.0
2023-04-22T12:08:16.690Z,46.1
2023-04-22T12:09:17.272Z,45.4
2023-04-22T12:10:16.856Z,45.5
2023-04-22T12:11:17.404Z,44.8
2023-04-22T12:12:17.269Z,44.3
2023-04-22T12:13:16.831Z,44.4
2023-04-22T12:14:17.371Z,45.2
2023-04-22T12:15:19.003Z,44.6
2023-04-22T12:16:16.560Z,44.7
2023-04-22T12:17:17.406Z,45.1
2023-04-22T12:18:16.974Z,45.6
2023-04-22T12:19:16.520Z,45.3
2023-04-22T12:20:17.083Z,45.4
2023-04-22T12:21:16.669Z,45.1
2023-04-22T12:22:16.620Z,45.7
2023-04-22T12:23:17.198Z,45.3
2023-04-22T12:24:16.797Z,45.8
2023-04-22T12:25:17.381Z,45.6
2023-04-22T12:26:16.988Z,45.4
2023-04-22T12:27:16.573Z,45.6
2023-04-22T12:28:17.140Z,46.2
2023-04-22T12:29:16.685Z,45.9
2023-04-22T12:30:17.250Z,45.9
2023-04-22T12:31:17.028Z,45.8
2023-04-22T12:32:17.188Z,46.0
2023-04-22T12:33:16.766Z,45.4
2023-04-22T12:34:17.424Z,45.9
2023-04-22T12:35:16.987Z,46.5
2023-04-22T12:36:16.562Z,45.7
2023-04-22T12:37:17.139Z,46.0
2023-04-22T12:38:16.736Z,46.2
2023-04-22T12:39:17.310Z,46.0
2023-04-22T12:40:16.855Z,45.8
2023-04-22T12:41:17.428Z,46.2
2023-04-22T12:42:17.032Z,47.0
2023-04-22T12:43:16.589Z,46.4
2023-04-22T12:44:17.150Z,46.6
2023-04-22T12:45:16.686Z,46.9
2023-04-22T12:46:17.336Z,46.5
2023-04-22T12:47:17.076Z,46.7
2023-04-22T12:48:16.677Z,46.7
2023-04-22T12:49:17.229Z,46.5
2023-04-22T12:50:16.809Z,46.0
2023-04-22T12:51:17.377Z,45.4
2023-04-22T12:52:17.173Z,45.7
2023-04-22T12:53:16.764Z,44.8
2023-04-22T12:54:17.329Z,45.2
2023-04-22T12:55:16.893Z,45.4
2023-04-22T12:56:17.478Z,45.2
2023-04-22T12:57:17.043Z,44.9
2023-04-22T12:58:16.600Z,45.1
2023-04-22T12:59:17.173Z,45.1
2023-04-22T13:00:16.726Z,45.6
2023-04-22T13:01:17.370Z,45.1
2023-04-22T13:02:16.864Z,45.3
2023-04-22T13:03:17.709Z,46.0
2023-04-22T13:04:17.473Z,46.0
2023-04-22T13:05:17.108Z,45.8
2023-04-22T13:06:16.675Z,46.2
2023-04-22T13:07:17.236Z,46.6
2023-04-22T13:08:16.780Z,46.3
2023-04-22T13:09:17.326Z,46.7
2023-04-22T13:10:16.872Z,46.5
2023-04-22T13:11:17.447Z,47.3
2023-04-22T13:12:16.690Z,46.3
2023-04-22T13:13:19.792Z,45.8
2023-04-22T13:14:17.352Z,45.9
2023-04-22T13:15:16.917Z,45.7
2023-04-22T13:16:17.569Z,46.4
2023-04-22T13:17:17.144Z,46.7
2023-04-22T13:18:17.004Z,46.3